sensor_id;sensor_type;location;lat;lon;timestamp;temperature;humidity
7000;DHT22;3540;53.242;10.408;2022-07-11T00:01:32;12.40;99.90
7000;DHT22;3540;53.242;10.408;2022-07-11T00:03:58;12.40;99.90
7000;DHT22;3540;53.242;10.408;2022-07-11T00:06:23;12.50;99.90
7000;DHT22;3540;53.242;10.408;2022-07-11T00:08:49;12.50;99.90
7000;DHT22;3540;53.242;10.408;2022-07-11T00:11:15;12.50;99.90
7000;DHT22;3540;53.242;10.408;2022-07-11T00:13:40;12.50;99.90
7000;DHT22;3540;53.242;10.408;2022-07-11T00:16:06;12.50;99.90
7000;DHT22;3540;53.242;10.408;2022-07-11T00:18:32;12.40;99.90
7000;DHT22;3540;53.242;10.408;2022-07-11T00:20:57;12.40;99.90
7000;DHT22;3540;53.242;10.408;2022-07-11T00:23:23;12.30;99.90
7000;DHT22;3540;53.242;10.408;2022-07-11T00:25:48;12.30;99.90
7000;DHT22;3540;53.242;10.408;2022-07-11T00:28:14;12.20;99.90
7000;DHT22;3540;53.242;10.408;2022-07-11T00:30:40;12.20;99.90
7000;DHT22;3540;53.242;10.408;2022-07-11T00:33:05;12.20;99.90
7000;DHT22;3540;53.242;10.408;2022-07-11T00:35:31;12.10;99.90
7000;DHT22;3540;53.242;10.408;2022-07-11T00:37:57;12.10;99.90
7000;DHT22;3540;53.242;10.408;2022-07-11T00:40:22;12.10;99.90
7000;DHT22;3540;53.242;10.408;2022-07-11T00:42:48;12.10;99.90
7000;DHT22;3540;53.242;10.408;2022-07-11T00:45:14;12.10;99.90
7000;DHT22;3540;53.242;10.408;2022-07-11T00:47:39;12.10;99.90
7000;DHT22;3540;53.242;10.408;2022-07-11T00:50:05;12.10;99.90
7000;DHT22;3540;53.242;10.408;2022-07-11T00:52:32;12.10;99.90
7000;DHT22;3540;53.242;10.408;2022-07-11T00:54:58;12.00;99.90
7000;DHT22;3540;53.242;10.408;2022-07-11T00:57:24;12.00;99.90
7000;DHT22;3540;53.242;10.408;2022-07-11T00:59:50;11.90;99.90
7000;DHT22;3540;53.242;10.408;2022-07-11T01:02:17;11.90;99.90
7000;DHT22;3540;53.242;10.408;2022-07-11T01:04:42;11.90;99.90
7000;DHT22;3540;53.242;10.408;2022-07-11T01:07:08;11.80;99.90
7000;DHT22;3540;53.242;10.408;2022-07-11T01:09:34;11.80;99.90
7000;DHT22;3540;53.242;10.408;2022-07-11T01:12:00;11.80;99.90
7000;DHT22;3540;53.242;10.408;2022-07-11T01:14:25;11.80;99.90
7000;DHT22;3540;53.242;10.408;2022-07-11T01:16:51;11.80;99.90
7000;DHT22;3540;53.242;10.408;2022-07-11T01:19:17;11.80;99.90
7000;DHT22;3540;53.242;10.408;2022-07-11T01:21:45;11.80;99.90
7000;DHT22;3540;53.242;10.408;2022-07-11T01:24:13;11.80;99.90
7000;DHT22;3540;53.242;10.408;2022-07-11T01:26:39;11.80;99.90
7000;DHT22;3540;53.242;10.408;2022-07-11T01:29:10;11.70;99.90
7000;DHT22;3540;53.242;10.408;2022-07-11T01:31:42;11.70;99.90
7000;DHT22;3540;53.242;10.408;2022-07-11T01:34:08;11.70;99.90
7000;DHT22;3540;53.242;10.408;2022-07-11T01:36:34;11.70;99.90
7000;DHT22;3540;53.242;10.408;2022-07-11T01:39:00;11.70;99.90
7000;DHT22;3540;53.242;10.408;2022-07-11T01:41:25;11.60;99.90
7000;DHT22;3540;53.242;10.408;2022-07-11T01:43:52;11.60;99.90
7000;DHT22;3540;53.242;10.408;2022-07-11T01:46:18;11.60;99.90
7000;DHT22;3540;53.242;10.408;2022-07-11T01:48:44;11.60;99.90
7000;DHT22;3540;53.242;10.408;2022-07-11T01:51:10;11.70;99.90
7000;DHT22;3540;53.242;10.408;2022-07-11T01:53:36;11.70;99.90
7000;DHT22;3540;53.242;10.408;2022-07-11T01:56:02;11.80;99.90
7000;DHT22;3540;53.242;10.408;2022-07-11T01:58:28;11.80;99.90
7000;DHT22;3540;53.242;10.408;2022-07-11T02:00:56;11.80;99.90
7000;DHT22;3540;53.242;10.408;2022-07-11T02:03:22;11.90;99.90
7000;DHT22;3540;53.242;10.408;2022-07-11T02:05:48;12.00;99.90
7000;DHT22;3540;53.242;10.408;2022-07-11T02:08:14;12.00;99.90
7000;DHT22;3540;53.242;10.408;2022-07-11T02:10:47;12.00;99.90
7000;DHT22;3540;53.242;10.408;2022-07-11T02:13:16;12.10;99.90
7000;DHT22;3540;53.242;10.408;2022-07-11T02:15:43;12.10;99.90
7000;DHT22;3540;53.242;10.408;2022-07-11T02:18:10;12.10;99.90
7000;DHT22;3540;53.242;10.408;2022-07-11T02:20:36;12.10;99.90
7000;DHT22;3540;53.242;10.408;2022-07-11T02:23:02;12.10;99.90
7000;DHT22;3540;53.242;10.408;2022-07-11T02:25:29;12.10;99.90
7000;DHT22;3540;53.242;10.408;2022-07-11T02:27:55;12.10;99.90
7000;DHT22;3540;53.242;10.408;2022-07-11T02:30:21;12.10;99.90
7000;DHT22;3540;53.242;10.408;2022-07-11T02:32:49;12.10;99.90
7000;DHT22;3540;53.242;10.408;2022-07-11T02:35:15;12.10;99.90
7000;DHT22;3540;53.242;10.408;2022-07-11T02:37:40;12.20;99.90
7000;DHT22;3540;53.242;10.408;2022-07-11T02:40:06;12.20;99.90
7000;DHT22;3540;53.242;10.408;2022-07-11T02:42:32;12.20;99.90
7000;DHT22;3540;53.242;10.408;2022-07-11T02:44:58;12.20;99.90
7000;DHT22;3540;53.242;10.408;2022-07-11T02:47:24;12.30;99.90
7000;DHT22;3540;53.242;10.408;2022-07-11T02:49:49;12.30;99.90
7000;DHT22;3540;53.242;10.408;2022-07-11T02:52:15;12.40;99.90
7000;DHT22;3540;53.242;10.408;2022-07-11T02:54:41;12.40;99.90
7000;DHT22;3540;53.242;10.408;2022-07-11T02:57:06;12.40;99.90
7000;DHT22;3540;53.242;10.408;2022-07-11T02:59:32;12.50;99.90
7000;DHT22;3540;53.242;10.408;2022-07-11T03:01:57;12.50;99.90
7000;DHT22;3540;53.242;10.408;2022-07-11T03:04:23;12.50;99.90
7000;DHT22;3540;53.242;10.408;2022-07-11T03:06:49;12.60;99.90
7000;DHT22;3540;53.242;10.408;2022-07-11T03:09:14;12.60;99.90
7000;DHT22;3540;53.242;10.408;2022-07-11T03:11:40;12.60;99.90
7000;DHT22;3540;53.242;10.408;2022-07-11T03:14:06;12.70;99.90
7000;DHT22;3540;53.242;10.408;2022-07-11T03:16:31;12.70;99.90
7000;DHT22;3540;53.242;10.408;2022-07-11T03:18:57;12.70;99.90
7000;DHT22;3540;53.242;10.408;2022-07-11T03:21:25;12.70;99.90
7000;DHT22;3540;53.242;10.408;2022-07-11T03:23:51;12.80;99.90
7000;DHT22;3540;53.242;10.408;2022-07-11T03:26:17;12.80;99.90
7000;DHT22;3540;53.242;10.408;2022-07-11T03:28:43;12.80;99.90
7000;DHT22;3540;53.242;10.408;2022-07-11T03:31:09;12.70;99.90
7000;DHT22;3540;53.242;10.408;2022-07-11T03:33:35;12.70;99.90
7000;DHT22;3540;53.242;10.408;2022-07-11T03:36:00;12.70;99.90
7000;DHT22;3540;53.242;10.408;2022-07-11T03:38:26;12.70;99.90
7000;DHT22;3540;53.242;10.408;2022-07-11T03:40:51;12.70;99.90
7000;DHT22;3540;53.242;10.408;2022-07-11T03:43:18;12.70;99.90
7000;DHT22;3540;53.242;10.408;2022-07-11T03:45:44;12.70;99.90
7000;DHT22;3540;53.242;10.408;2022-07-11T03:48:10;12.70;99.90
7000;DHT22;3540;53.242;10.408;2022-07-11T03:50:36;12.80;99.90
7000;DHT22;3540;53.242;10.408;2022-07-11T03:53:01;12.80;99.90
7000;DHT22;3540;53.242;10.408;2022-07-11T03:55:28;12.90;99.90
7000;DHT22;3540;53.242;10.408;2022-07-11T03:57:54;12.90;99.90
7000;DHT22;3540;53.242;10.408;2022-07-11T04:00:20;13.00;99.90
7000;DHT22;3540;53.242;10.408;2022-07-11T04:02:47;13.00;99.90
7000;DHT22;3540;53.242;10.408;2022-07-11T04:05:13;13.10;99.90
7000;DHT22;3540;53.242;10.408;2022-07-11T04:07:39;13.10;99.90
7000;DHT22;3540;53.242;10.408;2022-07-11T04:10:05;13.20;99.90
7000;DHT22;3540;53.242;10.408;2022-07-11T04:12:31;13.30;99.90
7000;DHT22;3540;53.242;10.408;2022-07-11T04:14:56;13.30;99.90
7000;DHT22;3540;53.242;10.408;2022-07-11T04:17:22;13.30;99.90
7000;DHT22;3540;53.242;10.408;2022-07-11T04:19:48;13.30;99.90
7000;DHT22;3540;53.242;10.408;2022-07-11T04:22:13;13.30;99.90
7000;DHT22;3540;53.242;10.408;2022-07-11T04:24:39;13.40;99.90
7000;DHT22;3540;53.242;10.408;2022-07-11T04:27:05;13.40;99.90
7000;DHT22;3540;53.242;10.408;2022-07-11T04:29:31;13.50;99.90
7000;DHT22;3540;53.242;10.408;2022-07-11T04:31:57;13.50;99.90
7000;DHT22;3540;53.242;10.408;2022-07-11T04:34:22;13.50;99.90
7000;DHT22;3540;53.242;10.408;2022-07-11T04:36:48;13.50;99.90
7000;DHT22;3540;53.242;10.408;2022-07-11T04:39:13;13.60;99.90
7000;DHT22;3540;53.242;10.408;2022-07-11T04:41:39;13.70;99.90
7000;DHT22;3540;53.242;10.408;2022-07-11T04:44:05;13.80;99.90
7000;DHT22;3540;53.242;10.408;2022-07-11T04:46:31;13.80;99.90
7000;DHT22;3540;53.242;10.408;2022-07-11T04:48:58;13.90;99.90
7000;DHT22;3540;53.242;10.408;2022-07-11T04:51:23;13.90;99.90
7000;DHT22;3540;53.242;10.408;2022-07-11T04:53:50;13.90;99.90
7000;DHT22;3540;53.242;10.408;2022-07-11T04:56:15;13.80;99.90
7000;DHT22;3540;53.242;10.408;2022-07-11T04:58:41;13.80;99.90
7000;DHT22;3540;53.242;10.408;2022-07-11T05:01:07;13.90;99.90
7000;DHT22;3540;53.242;10.408;2022-07-11T05:03:32;13.90;99.90
7000;DHT22;3540;53.242;10.408;2022-07-11T05:05:58;13.90;99.90
7000;DHT22;3540;53.242;10.408;2022-07-11T05:08:24;13.90;99.90
7000;DHT22;3540;53.242;10.408;2022-07-11T05:10:49;13.90;99.90
7000;DHT22;3540;53.242;10.408;2022-07-11T05:13:15;13.90;99.90
7000;DHT22;3540;53.242;10.408;2022-07-11T05:15:41;13.90;99.90
7000;DHT22;3540;53.242;10.408;2022-07-11T05:18:08;13.90;99.90
7000;DHT22;3540;53.242;10.408;2022-07-11T05:20:33;14.00;99.90
7000;DHT22;3540;53.242;10.408;2022-07-11T05:22:59;14.00;99.90
7000;DHT22;3540;53.242;10.408;2022-07-11T05:25:25;14.00;99.90
7000;DHT22;3540;53.242;10.408;2022-07-11T05:27:51;14.00;99.90
7000;DHT22;3540;53.242;10.408;2022-07-11T05:30:16;14.10;99.90
7000;DHT22;3540;53.242;10.408;2022-07-11T05:32:42;14.30;99.90
7000;DHT22;3540;53.242;10.408;2022-07-11T05:35:08;14.40;99.90
7000;DHT22;3540;53.242;10.408;2022-07-11T05:37:34;14.50;99.90
7000;DHT22;3540;53.242;10.408;2022-07-11T05:40:00;14.50;99.90
7000;DHT22;3540;53.242;10.408;2022-07-11T05:42:26;14.50;99.90
7000;DHT22;3540;53.242;10.408;2022-07-11T05:44:52;14.50;99.90
7000;DHT22;3540;53.242;10.408;2022-07-11T05:47:18;14.50;99.90
7000;DHT22;3540;53.242;10.408;2022-07-11T05:49:44;14.50;99.90
7000;DHT22;3540;53.242;10.408;2022-07-11T05:52:09;14.60;99.90
7000;DHT22;3540;53.242;10.408;2022-07-11T05:54:36;14.60;99.90
7000;DHT22;3540;53.242;10.408;2022-07-11T05:57:02;14.60;99.90
7000;DHT22;3540;53.242;10.408;2022-07-11T05:59:29;14.60;99.90
7000;DHT22;3540;53.242;10.408;2022-07-11T06:01:54;14.70;99.90
7000;DHT22;3540;53.242;10.408;2022-07-11T06:04:20;14.80;99.90
7000;DHT22;3540;53.242;10.408;2022-07-11T06:06:46;14.90;99.90
7000;DHT22;3540;53.242;10.408;2022-07-11T06:09:13;15.00;99.90
7000;DHT22;3540;53.242;10.408;2022-07-11T06:11:39;15.10;99.90
7000;DHT22;3540;53.242;10.408;2022-07-11T06:14:04;15.10;99.90
7000;DHT22;3540;53.242;10.408;2022-07-11T06:16:31;15.10;99.90
7000;DHT22;3540;53.242;10.408;2022-07-11T06:18:57;15.20;99.90
7000;DHT22;3540;53.242;10.408;2022-07-11T06:21:24;15.40;99.90
7000;DHT22;3540;53.242;10.408;2022-07-11T06:23:50;15.40;99.90
7000;DHT22;3540;53.242;10.408;2022-07-11T06:26:16;15.50;99.90
7000;DHT22;3540;53.242;10.408;2022-07-11T06:28:42;15.60;99.90
7000;DHT22;3540;53.242;10.408;2022-07-11T06:31:08;15.60;99.90
7000;DHT22;3540;53.242;10.408;2022-07-11T06:33:34;15.60;99.90
7000;DHT22;3540;53.242;10.408;2022-07-11T06:36:01;15.60;99.90
7000;DHT22;3540;53.242;10.408;2022-07-11T06:38:27;15.60;99.90
7000;DHT22;3540;53.242;10.408;2022-07-11T06:40:54;15.40;99.90
7000;DHT22;3540;53.242;10.408;2022-07-11T06:43:20;15.20;99.90
7000;DHT22;3540;53.242;10.408;2022-07-11T06:45:46;15.10;99.90
7000;DHT22;3540;53.242;10.408;2022-07-11T06:48:12;15.20;99.90
7000;DHT22;3540;53.242;10.408;2022-07-11T06:50:38;15.20;99.90
7000;DHT22;3540;53.242;10.408;2022-07-11T06:53:03;15.30;99.90
7000;DHT22;3540;53.242;10.408;2022-07-11T06:55:30;15.40;99.90
7000;DHT22;3540;53.242;10.408;2022-07-11T06:57:56;15.60;99.90
7000;DHT22;3540;53.242;10.408;2022-07-11T07:00:21;15.70;99.90
7000;DHT22;3540;53.242;10.408;2022-07-11T07:02:47;16.00;99.90
7000;DHT22;3540;53.242;10.408;2022-07-11T07:05:13;16.10;99.90
7000;DHT22;3540;53.242;10.408;2022-07-11T07:07:39;16.20;99.90
7000;DHT22;3540;53.242;10.408;2022-07-11T07:10:05;16.50;99.90
7000;DHT22;3540;53.242;10.408;2022-07-11T07:12:31;16.60;99.90
7000;DHT22;3540;53.242;10.408;2022-07-11T07:14:59;16.40;99.90
7000;DHT22;3540;53.242;10.408;2022-07-11T07:17:25;16.10;99.90
7000;DHT22;3540;53.242;10.408;2022-07-11T07:19:51;15.70;99.90
7000;DHT22;3540;53.242;10.408;2022-07-11T07:22:16;15.80;99.90
7000;DHT22;3540;53.242;10.408;2022-07-11T07:24:43;15.80;99.90
7000;DHT22;3540;53.242;10.408;2022-07-11T07:27:09;15.80;99.90
7000;DHT22;3540;53.242;10.408;2022-07-11T07:29:35;15.90;99.90
7000;DHT22;3540;53.242;10.408;2022-07-11T07:32:00;16.20;99.90
7000;DHT22;3540;53.242;10.408;2022-07-11T07:34:26;16.50;99.90
7000;DHT22;3540;53.242;10.408;2022-07-11T07:36:51;16.70;99.90
7000;DHT22;3540;53.242;10.408;2022-07-11T07:39:18;16.90;99.90
7000;DHT22;3540;53.242;10.408;2022-07-11T07:41:43;16.90;99.90
7000;DHT22;3540;53.242;10.408;2022-07-11T07:44:09;16.90;99.90
7000;DHT22;3540;53.242;10.408;2022-07-11T07:46:36;16.80;99.90
7000;DHT22;3540;53.242;10.408;2022-07-11T07:49:01;16.70;99.90
7000;DHT22;3540;53.242;10.408;2022-07-11T07:51:28;16.90;99.90
7000;DHT22;3540;53.242;10.408;2022-07-11T07:53:54;17.30;99.90
7000;DHT22;3540;53.242;10.408;2022-07-11T07:56:20;17.40;99.90
7000;DHT22;3540;53.242;10.408;2022-07-11T07:58:46;17.40;99.90
7000;DHT22;3540;53.242;10.408;2022-07-11T08:01:11;17.70;99.90
7000;DHT22;3540;53.242;10.408;2022-07-11T08:03:55;18.00;99.90
7000;DHT22;3540;53.242;10.408;2022-07-11T08:06:21;17.70;99.90
7000;DHT22;3540;53.242;10.408;2022-07-11T08:08:47;17.50;99.90
7000;DHT22;3540;53.242;10.408;2022-07-11T08:11:13;17.60;99.90
7000;DHT22;3540;53.242;10.408;2022-07-11T08:13:39;17.60;99.90
7000;DHT22;3540;53.242;10.408;2022-07-11T08:16:05;17.60;99.90
7000;DHT22;3540;53.242;10.408;2022-07-11T08:18:32;17.70;99.90
7000;DHT22;3540;53.242;10.408;2022-07-11T08:20:58;17.90;99.90
7000;DHT22;3540;53.242;10.408;2022-07-11T08:23:24;18.00;99.90
7000;DHT22;3540;53.242;10.408;2022-07-11T08:25:50;18.10;99.90
7000;DHT22;3540;53.242;10.408;2022-07-11T08:28:15;18.40;99.90
7000;DHT22;3540;53.242;10.408;2022-07-11T08:30:41;18.80;99.90
7000;DHT22;3540;53.242;10.408;2022-07-11T08:33:07;18.90;99.90
7000;DHT22;3540;53.242;10.408;2022-07-11T08:35:32;18.90;99.90
7000;DHT22;3540;53.242;10.408;2022-07-11T08:37:58;18.40;99.90
7000;DHT22;3540;53.242;10.408;2022-07-11T08:40:23;18.20;99.90
7000;DHT22;3540;53.242;10.408;2022-07-11T08:42:49;18.00;99.90
7000;DHT22;3540;53.242;10.408;2022-07-11T08:45:16;18.10;99.90
7000;DHT22;3540;53.242;10.408;2022-07-11T08:47:43;18.30;99.90
7000;DHT22;3540;53.242;10.408;2022-07-11T08:50:10;18.40;99.90
7000;DHT22;3540;53.242;10.408;2022-07-11T08:52:36;18.60;99.90
7000;DHT22;3540;53.242;10.408;2022-07-11T08:55:05;18.50;99.90
7000;DHT22;3540;53.242;10.408;2022-07-11T08:57:38;18.50;99.90
7000;DHT22;3540;53.242;10.408;2022-07-11T09:00:08;18.80;99.90
7000;DHT22;3540;53.242;10.408;2022-07-11T09:02:35;18.80;99.90
7000;DHT22;3540;53.242;10.408;2022-07-11T09:05:05;18.50;99.90
7000;DHT22;3540;53.242;10.408;2022-07-11T09:07:34;18.70;99.90
7000;DHT22;3540;53.242;10.408;2022-07-11T09:10:07;18.70;99.90
7000;DHT22;3540;53.242;10.408;2022-07-11T09:12:32;18.70;99.90
7000;DHT22;3540;53.242;10.408;2022-07-11T09:14:58;18.80;99.90
7000;DHT22;3540;53.242;10.408;2022-07-11T09:17:27;18.90;99.90
7000;DHT22;3540;53.242;10.408;2022-07-11T09:19:54;19.00;99.90
7000;DHT22;3540;53.242;10.408;2022-07-11T09:22:20;19.30;99.90
7000;DHT22;3540;53.242;10.408;2022-07-11T09:25:11;19.40;99.90
7000;DHT22;3540;53.242;10.408;2022-07-11T09:28:02;19.40;99.90
7000;DHT22;3540;53.242;10.408;2022-07-11T09:30:38;19.80;99.90
7000;DHT22;3540;53.242;10.408;2022-07-11T09:33:12;20.00;99.90
7000;DHT22;3540;53.242;10.408;2022-07-11T09:35:45;20.10;99.90
7000;DHT22;3540;53.242;10.408;2022-07-11T09:38:12;20.20;99.90
7000;DHT22;3540;53.242;10.408;2022-07-11T09:40:42;19.90;99.90
7000;DHT22;3540;53.242;10.408;2022-07-11T09:43:08;20.40;99.90
7000;DHT22;3540;53.242;10.408;2022-07-11T09:45:35;20.50;99.90
7000;DHT22;3540;53.242;10.408;2022-07-11T09:48:11;20.00;99.90
7000;DHT22;3540;53.242;10.408;2022-07-11T09:50:37;19.60;99.90
7000;DHT22;3540;53.242;10.408;2022-07-11T09:53:26;19.30;99.90
7000;DHT22;3540;53.242;10.408;2022-07-11T09:55:52;19.60;99.90
7000;DHT22;3540;53.242;10.408;2022-07-11T09:58:18;19.80;99.90
7000;DHT22;3540;53.242;10.408;2022-07-11T10:00:44;20.30;99.90
7000;DHT22;3540;53.242;10.408;2022-07-11T10:03:11;20.60;99.90
7000;DHT22;3540;53.242;10.408;2022-07-11T10:05:38;20.60;99.90
7000;DHT22;3540;53.242;10.408;2022-07-11T10:08:05;20.40;99.90
7000;DHT22;3540;53.242;10.408;2022-07-11T10:10:32;19.80;99.90
7000;DHT22;3540;53.242;10.408;2022-07-11T10:12:58;20.20;99.90
7000;DHT22;3540;53.242;10.408;2022-07-11T10:15:31;20.10;99.90
7000;DHT22;3540;53.242;10.408;2022-07-11T10:18:27;20.50;99.90
7000;DHT22;3540;53.242;10.408;2022-07-11T10:21:17;20.90;99.90
7000;DHT22;3540;53.242;10.408;2022-07-11T10:23:53;21.20;99.90
7000;DHT22;3540;53.242;10.408;2022-07-11T10:29:45;21.00;99.90
7000;DHT22;3540;53.242;10.408;2022-07-11T10:34:30;20.40;99.90
7000;DHT22;3540;53.242;10.408;2022-07-11T10:37:03;20.50;99.90
7000;DHT22;3540;53.242;10.408;2022-07-11T10:39:30;20.70;99.90
7000;DHT22;3540;53.242;10.408;2022-07-11T10:42:01;21.10;99.90
7000;DHT22;3540;53.242;10.408;2022-07-11T10:44:28;21.80;99.90
7000;DHT22;3540;53.242;10.408;2022-07-11T10:49:57;20.60;99.90
7000;DHT22;3540;53.242;10.408;2022-07-11T10:52:26;20.30;99.90
7000;DHT22;3540;53.242;10.408;2022-07-11T10:57:58;20.50;99.90
7000;DHT22;3540;53.242;10.408;2022-07-11T11:00:27;21.00;99.90
7000;DHT22;3540;53.242;10.408;2022-07-11T11:05:51;21.60;99.90
7000;DHT22;3540;53.242;10.408;2022-07-11T11:14:19;21.60;99.90
7000;DHT22;3540;53.242;10.408;2022-07-11T11:16:46;21.90;99.90
7000;DHT22;3540;53.242;10.408;2022-07-11T11:22:17;21.30;99.90
7000;DHT22;3540;53.242;10.408;2022-07-11T11:24:43;21.30;1.00
7000;DHT22;3540;53.242;10.408;2022-07-11T11:27:27;21.50;99.90
7000;DHT22;3540;53.242;10.408;2022-07-11T11:29:55;22.00;1.00
7000;DHT22;3540;53.242;10.408;2022-07-11T11:32:22;22.30;1.00
7000;DHT22;3540;53.242;10.408;2022-07-11T11:34:53;22.20;1.00
7000;DHT22;3540;53.242;10.408;2022-07-11T11:37:19;22.40;1.00
7000;DHT22;3540;53.242;10.408;2022-07-11T11:39:46;21.70;1.00
7000;DHT22;3540;53.242;10.408;2022-07-11T11:42:15;21.80;1.00
7000;DHT22;3540;53.242;10.408;2022-07-11T11:45:07;22.00;1.00
7000;DHT22;3540;53.242;10.408;2022-07-11T11:47:35;21.40;99.90
7000;DHT22;3540;53.242;10.408;2022-07-11T11:50:01;21.20;99.90
7000;DHT22;3540;53.242;10.408;2022-07-11T11:52:28;21.60;99.90
7000;DHT22;3540;53.242;10.408;2022-07-11T11:54:55;21.90;99.90
7000;DHT22;3540;53.242;10.408;2022-07-11T11:57:23;22.50;1.00
7000;DHT22;3540;53.242;10.408;2022-07-11T11:59:49;23.10;99.90
7000;DHT22;3540;53.242;10.408;2022-07-11T12:02:30;23.30;99.90
7000;DHT22;3540;53.242;10.408;2022-07-11T12:04:59;23.50;1.00
7000;DHT22;3540;53.242;10.408;2022-07-11T12:07:32;22.80;1.00
7000;DHT22;3540;53.242;10.408;2022-07-11T12:09:58;21.70;99.90
7000;DHT22;3540;53.242;10.408;2022-07-11T12:12:30;21.40;99.90
7000;DHT22;3540;53.242;10.408;2022-07-11T12:15:32;21.70;99.90
7000;DHT22;3540;53.242;10.408;2022-07-11T12:18:21;22.00;1.00
7000;DHT22;3540;53.242;10.408;2022-07-11T12:20:46;22.70;1.00
7000;DHT22;3540;53.242;10.408;2022-07-11T12:23:16;22.90;1.00
7000;DHT22;3540;53.242;10.408;2022-07-11T12:25:43;23.30;1.00
7000;DHT22;3540;53.242;10.408;2022-07-11T12:28:09;22.40;1.00
7000;DHT22;3540;53.242;10.408;2022-07-11T12:30:35;23.00;99.90
7000;DHT22;3540;53.242;10.408;2022-07-11T12:33:02;23.30;99.90
7000;DHT22;3540;53.242;10.408;2022-07-11T12:35:28;22.90;60.40
7000;DHT22;3540;53.242;10.408;2022-07-11T12:37:54;22.90;99.90
7000;DHT22;3540;53.242;10.408;2022-07-11T12:40:20;22.70;1.00
7000;DHT22;3540;53.242;10.408;2022-07-11T12:42:47;22.20;99.90
7000;DHT22;3540;53.242;10.408;2022-07-11T12:45:14;22.20;1.00
7000;DHT22;3540;53.242;10.408;2022-07-11T12:47:42;22.00;99.90
7000;DHT22;3540;53.242;10.408;2022-07-11T12:50:22;22.40;99.90
7000;DHT22;3540;53.242;10.408;2022-07-11T12:52:51;22.70;99.90
7000;DHT22;3540;53.242;10.408;2022-07-11T12:55:30;22.10;99.90
7000;DHT22;3540;53.242;10.408;2022-07-11T12:58:21;22.10;99.90
7000;DHT22;3540;53.242;10.408;2022-07-11T13:00:58;22.10;99.90
7000;DHT22;3540;53.242;10.408;2022-07-11T13:03:31;22.50;1.00
7000;DHT22;3540;53.242;10.408;2022-07-11T13:05:57;22.80;99.90
7000;DHT22;3540;53.242;10.408;2022-07-11T13:08:34;22.40;98.90
7000;DHT22;3540;53.242;10.408;2022-07-11T13:11:13;22.70;99.90
7000;DHT22;3540;53.242;10.408;2022-07-11T13:13:39;22.70;99.90
7000;DHT22;3540;53.242;10.408;2022-07-11T13:16:05;22.40;1.00
7000;DHT22;3540;53.242;10.408;2022-07-11T13:18:32;22.50;99.90
7000;DHT22;3540;53.242;10.408;2022-07-11T13:20:57;22.70;99.90
7000;DHT22;3540;53.242;10.408;2022-07-11T13:23:23;22.50;99.90
7000;DHT22;3540;53.242;10.408;2022-07-11T13:25:49;22.70;99.90
7000;DHT22;3540;53.242;10.408;2022-07-11T13:28:15;22.90;99.90
7000;DHT22;3540;53.242;10.408;2022-07-11T13:30:40;22.90;99.90
7000;DHT22;3540;53.242;10.408;2022-07-11T13:33:06;22.90;99.90
7000;DHT22;3540;53.242;10.408;2022-07-11T13:35:32;22.80;99.90
7000;DHT22;3540;53.242;10.408;2022-07-11T13:37:58;23.00;99.90
7000;DHT22;3540;53.242;10.408;2022-07-11T13:40:24;23.20;99.90
7000;DHT22;3540;53.242;10.408;2022-07-11T13:42:51;23.50;99.90
7000;DHT22;3540;53.242;10.408;2022-07-11T13:45:20;23.50;99.90
7000;DHT22;3540;53.242;10.408;2022-07-11T13:47:47;23.70;99.90
7000;DHT22;3540;53.242;10.408;2022-07-11T13:50:13;23.30;99.90
7000;DHT22;3540;53.242;10.408;2022-07-11T13:52:39;22.90;99.90
7000;DHT22;3540;53.242;10.408;2022-07-11T13:55:05;22.60;1.00
7000;DHT22;3540;53.242;10.408;2022-07-11T13:57:31;22.60;1.00
7000;DHT22;3540;53.242;10.408;2022-07-11T13:59:57;22.80;99.90
7000;DHT22;3540;53.242;10.408;2022-07-11T14:02:23;22.40;1.00
7000;DHT22;3540;53.242;10.408;2022-07-11T14:04:50;22.30;1.00
7000;DHT22;3540;53.242;10.408;2022-07-11T14:07:16;22.00;99.90
7000;DHT22;3540;53.242;10.408;2022-07-11T14:09:42;22.70;99.90
7000;DHT22;3540;53.242;10.408;2022-07-11T14:12:08;23.20;99.90
7000;DHT22;3540;53.242;10.408;2022-07-11T14:14:34;23.10;99.90
7000;DHT22;3540;53.242;10.408;2022-07-11T14:17:01;23.40;99.90
7000;DHT22;3540;53.242;10.408;2022-07-11T14:19:27;23.70;99.90
7000;DHT22;3540;53.242;10.408;2022-07-11T14:21:53;23.80;99.90
7000;DHT22;3540;53.242;10.408;2022-07-11T14:24:19;23.60;99.90
7000;DHT22;3540;53.242;10.408;2022-07-11T14:26:45;23.70;99.90
7000;DHT22;3540;53.242;10.408;2022-07-11T14:29:11;23.70;1.00
7000;DHT22;3540;53.242;10.408;2022-07-11T14:31:37;23.90;1.00
7000;DHT22;3540;53.242;10.408;2022-07-11T14:34:04;24.20;99.90
7000;DHT22;3540;53.242;10.408;2022-07-11T14:36:29;24.20;99.90
7000;DHT22;3540;53.242;10.408;2022-07-11T14:38:55;24.30;99.90
7000;DHT22;3540;53.242;10.408;2022-07-11T14:41:21;24.50;99.90
7000;DHT22;3540;53.242;10.408;2022-07-11T14:43:47;24.90;99.90
7000;DHT22;3540;53.242;10.408;2022-07-11T14:46:14;25.10;99.90
7000;DHT22;3540;53.242;10.408;2022-07-11T14:48:41;25.00;99.90
7000;DHT22;3540;53.242;10.408;2022-07-11T14:51:08;24.70;99.90
7000;DHT22;3540;53.242;10.408;2022-07-11T14:53:34;24.40;99.90
7000;DHT22;3540;53.242;10.408;2022-07-11T14:55:59;24.70;99.90
7000;DHT22;3540;53.242;10.408;2022-07-11T14:58:25;23.80;1.00
7000;DHT22;3540;53.242;10.408;2022-07-11T15:00:51;23.90;99.90
7000;DHT22;3540;53.242;10.408;2022-07-11T15:03:17;23.70;99.90
7000;DHT22;3540;53.242;10.408;2022-07-11T15:06:01;23.50;99.90
7000;DHT22;3540;53.242;10.408;2022-07-11T15:08:27;23.70;99.90
7000;DHT22;3540;53.242;10.408;2022-07-11T15:11:11;23.70;99.90
7000;DHT22;3540;53.242;10.408;2022-07-11T15:13:55;24.30;99.90
7000;DHT22;3540;53.242;10.408;2022-07-11T15:16:21;24.40;99.90
7000;DHT22;3540;53.242;10.408;2022-07-11T15:18:47;24.40;99.90
7000;DHT22;3540;53.242;10.408;2022-07-11T15:21:13;24.20;1.00
7000;DHT22;3540;53.242;10.408;2022-07-11T15:23:38;23.60;98.00
7000;DHT22;3540;53.242;10.408;2022-07-11T15:26:04;23.00;1.00
7000;DHT22;3540;53.242;10.408;2022-07-11T15:28:30;23.60;99.90
7000;DHT22;3540;53.242;10.408;2022-07-11T15:30:55;24.50;99.90
7000;DHT22;3540;53.242;10.408;2022-07-11T15:33:21;24.30;99.90
7000;DHT22;3540;53.242;10.408;2022-07-11T15:35:50;25.00;99.90
7000;DHT22;3540;53.242;10.408;2022-07-11T15:38:18;25.00;1.00
7000;DHT22;3540;53.242;10.408;2022-07-11T15:40:45;24.90;99.90
7000;DHT22;3540;53.242;10.408;2022-07-11T15:43:11;25.30;1.00
7000;DHT22;3540;53.242;10.408;2022-07-11T15:45:37;25.20;1.00
7000;DHT22;3540;53.242;10.408;2022-07-11T15:48:13;25.90;99.90
7000;DHT22;3540;53.242;10.408;2022-07-11T15:50:38;25.10;1.00
7000;DHT22;3540;53.242;10.408;2022-07-11T15:53:04;24.40;1.00
7000;DHT22;3540;53.242;10.408;2022-07-11T15:55:30;23.20;99.90
7000;DHT22;3540;53.242;10.408;2022-07-11T15:57:55;22.60;1.00
7000;DHT22;3540;53.242;10.408;2022-07-11T16:00:21;22.90;99.90
7000;DHT22;3540;53.242;10.408;2022-07-11T16:02:47;23.90;1.00
7000;DHT22;3540;53.242;10.408;2022-07-11T16:05:13;23.50;99.90
7000;DHT22;3540;53.242;10.408;2022-07-11T16:07:39;23.60;99.90
7000;DHT22;3540;53.242;10.408;2022-07-11T16:10:06;24.40;99.90
7000;DHT22;3540;53.242;10.408;2022-07-11T16:12:32;25.10;1.00